createdAt,value
2018-09-12T00:00:09.987Z,0.00
2018-09-12T00:01:09.909Z,0.00
2018-09-12T00:02:09.836Z,0.00
2018-09-12T00:03:09.762Z,0.00
2018-09-12T00:04:09.684Z,0.00
2018-09-12T00:05:09.612Z,0.00
2018-09-12T00:06:09.534Z,0.00
2018-09-12T00:07:09.459Z,0.00
2018-09-12T00:08:09.383Z,0.00
2018-09-12T00:09:09.307Z,0.00
2018-09-12T00:10:09.238Z,0.00
2018-09-12T00:11:09.156Z,0.00
2018-09-12T00:12:09.080Z,0.00
2018-09-12T00:13:09.005Z,0.00
2018-09-12T00:14:08.931Z,0.00
2018-09-12T00:15:08.855Z,0.00
2018-09-12T00:16:08.780Z,0.00
2018-09-12T00:17:08.706Z,0.00
2018-09-12T00:18:08.630Z,0.00
2018-09-12T00:19:08.555Z,0.00
2018-09-12T00:20:08.476Z,0.00
2018-09-12T00:21:08.426Z,0.00
2018-09-12T00:22:08.328Z,0.00
2018-09-12T00:23:08.251Z,0.00
2018-09-12T00:24:08.174Z,0.00
2018-09-12T00:25:08.098Z,0.00
2018-09-12T00:26:08.052Z,0.00
2018-09-12T00:27:07.966Z,0.00
2018-09-12T00:28:07.873Z,0.00
2018-09-12T00:29:07.803Z,0.00
2018-09-12T00:30:07.724Z,0.00
2018-09-12T00:31:07.648Z,0.00
2018-09-12T00:32:07.570Z,0.00
2018-09-12T00:33:07.494Z,0.00
2018-09-12T00:34:07.423Z,0.00
2018-09-12T00:35:07.352Z,0.00
2018-09-12T00:36:07.266Z,0.00
2018-09-12T00:37:07.200Z,0.00
2018-09-12T00:38:07.115Z,0.00
2018-09-12T00:39:07.040Z,0.00
2018-09-12T00:40:06.970Z,0.00
2018-09-12T00:41:06.900Z,0.00
2018-09-12T00:42:06.816Z,0.00
2018-09-12T00:43:06.741Z,0.00
2018-09-12T00:44:06.661Z,0.00
2018-09-12T00:45:06.587Z,0.00
2018-09-12T00:46:06.508Z,0.00
2018-09-12T00:47:06.438Z,0.00
2018-09-12T00:48:06.357Z,0.00
2018-09-12T00:49:06.282Z,0.00
2018-09-12T00:50:06.206Z,0.00
2018-09-12T00:51:06.132Z,0.00
2018-09-12T00:52:06.056Z,0.00
2018-09-12T00:53:05.980Z,0.00
2018-09-12T00:54:05.903Z,0.00
2018-09-12T00:55:05.828Z,0.00
2018-09-12T00:56:05.753Z,0.00
2018-09-12T00:57:05.675Z,0.00
2018-09-12T00:58:05.599Z,0.00
2018-09-12T00:59:05.524Z,0.00
2018-09-12T01:00:05.450Z,0.00
2018-09-12T01:01:05.369Z,0.00
2018-09-12T01:02:05.298Z,0.00
2018-09-12T01:03:05.220Z,0.00
2018-09-12T01:04:05.144Z,0.00
2018-09-12T01:05:05.068Z,0.00
2018-09-12T01:06:04.995Z,0.00
2018-09-12T01:07:04.916Z,0.00
2018-09-12T01:08:04.839Z,0.00
2018-09-12T01:09:04.762Z,0.00
2018-09-12T01:10:04.689Z,0.00
2018-09-12T01:11:04.609Z,0.00
2018-09-12T01:12:04.535Z,0.00
2018-09-12T01:13:04.460Z,0.00
2018-09-12T01:14:04.385Z,0.00
2018-09-12T01:15:04.312Z,0.00
2018-09-12T01:16:04.234Z,0.00
2018-09-12T01:17:04.153Z,0.00
2018-09-12T01:18:04.080Z,0.00
2018-09-12T01:19:04.007Z,0.00
2018-09-12T01:20:03.933Z,0.00
2018-09-12T01:21:03.850Z,0.00
2018-09-12T01:22:03.776Z,0.00
2018-09-12T01:23:03.699Z,0.00
2018-09-12T01:24:03.626Z,0.00
2018-09-12T01:25:03.546Z,0.00
2018-09-12T01:26:03.470Z,0.00
2018-09-12T01:27:03.398Z,0.00
2018-09-12T01:28:03.317Z,0.00
2018-09-12T01:29:03.243Z,0.00
2018-09-12T01:30:03.164Z,0.00
2018-09-12T01:31:03.091Z,0.00
2018-09-12T01:32:03.012Z,0.00
2018-09-12T01:33:02.936Z,0.00
2018-09-12T01:34:02.869Z,0.00
2018-09-12T01:35:02.787Z,0.00
2018-09-12T01:36:02.709Z,0.00
2018-09-12T01:37:02.634Z,0.00
2018-09-12T01:38:02.572Z,0.00
2018-09-12T01:39:02.481Z,0.00
2018-09-12T01:40:02.405Z,0.00
2018-09-12T01:41:04.941Z,0.00
2018-09-12T01:42:02.247Z,0.00
2018-09-12T01:43:02.179Z,0.00
2018-09-12T01:44:02.098Z,0.00
2018-09-12T01:45:02.024Z,0.00
2018-09-12T01:46:01.944Z,0.00
2018-09-12T01:47:01.873Z,0.00
2018-09-12T01:48:01.791Z,0.00
2018-09-12T01:49:01.716Z,0.00
2018-09-12T01:50:01.673Z,0.00
2018-09-12T01:51:01.564Z,0.00
2018-09-12T01:52:01.486Z,0.00
2018-09-12T01:53:01.409Z,0.00
2018-09-12T01:54:01.335Z,0.00
2018-09-12T01:55:08.910Z,0.00
2018-09-12T01:57:05.127Z,0.00
2018-09-12T01:58:04.997Z,0.00
2018-09-12T01:59:04.933Z,0.00
2018-09-12T02:00:04.843Z,0.00
2018-09-12T02:01:04.769Z,0.00
2018-09-12T02:02:04.691Z,0.00
2018-09-12T02:03:04.622Z,0.00
2018-09-12T02:04:04.539Z,0.00
2018-09-12T02:05:04.462Z,0.00
2018-09-12T02:06:04.390Z,0.00
2018-09-12T02:07:04.310Z,0.00
2018-09-12T02:08:04.232Z,0.00
2018-09-12T02:09:04.155Z,0.00
2018-09-12T02:10:04.079Z,0.00
2018-09-12T02:11:04.028Z,0.00
2018-09-12T02:12:03.928Z,0.00
2018-09-12T02:13:03.853Z,0.00
2018-09-12T02:14:03.781Z,0.00
2018-09-12T02:15:03.709Z,0.00
2018-09-12T02:16:03.619Z,0.00
2018-09-12T02:17:03.546Z,0.00
2018-09-12T02:18:03.468Z,0.00
2018-09-12T02:19:03.393Z,0.00
2018-09-12T02:20:03.316Z,0.00
2018-09-12T02:21:03.237Z,0.00
2018-09-12T02:22:03.163Z,0.00
2018-09-12T02:23:03.087Z,0.00
2018-09-12T02:24:03.010Z,0.00
2018-09-12T02:25:02.934Z,0.00
2018-09-12T02:26:02.854Z,0.00
2018-09-12T02:27:02.783Z,0.00
2018-09-12T02:28:02.702Z,0.00
2018-09-12T02:29:02.625Z,0.00
2018-09-12T02:30:02.551Z,0.00
2018-09-12T02:31:02.474Z,0.00
2018-09-12T02:32:02.398Z,0.00
2018-09-12T02:33:02.316Z,0.00
2018-09-12T02:34:02.241Z,0.00
2018-09-12T02:35:02.164Z,0.00
2018-09-12T02:36:02.091Z,0.00
2018-09-12T02:37:02.016Z,0.00
2018-09-12T02:38:01.937Z,0.00
2018-09-12T02:39:01.861Z,0.00
2018-09-12T02:40:01.789Z,0.00
2018-09-12T02:41:01.704Z,0.00
2018-09-12T02:42:01.628Z,0.00
2018-09-12T02:43:01.557Z,0.00
2018-09-12T02:44:01.473Z,0.00
2018-09-12T02:45:01.397Z,0.00
2018-09-12T02:46:01.327Z,0.00
2018-09-12T02:47:01.245Z,0.00
2018-09-12T02:48:01.168Z,0.00
2018-09-12T02:49:01.089Z,0.00
2018-09-12T02:50:01.028Z,0.00
2018-09-12T02:51:00.940Z,0.00
2018-09-12T02:52:00.862Z,0.00
2018-09-12T02:53:00.787Z,0.00
2018-09-12T02:54:00.708Z,0.00
2018-09-12T02:55:00.630Z,0.00
2018-09-12T02:56:00.552Z,0.00
2018-09-12T02:57:00.479Z,0.00
2018-09-12T02:58:00.400Z,0.00
2018-09-12T02:59:00.323Z,0.00
2018-09-12T03:00:00.250Z,0.00
2018-09-12T03:01:00.172Z,0.00
2018-09-12T03:02:00.094Z,0.00
2018-09-12T03:03:00.018Z,0.00
2018-09-12T03:03:59.939Z,0.00
2018-09-12T03:04:59.863Z,0.00
2018-09-12T03:05:59.785Z,0.00
2018-09-12T03:06:59.709Z,0.00
2018-09-12T03:07:59.750Z,0.00
2018-09-12T03:08:59.556Z,0.00
2018-09-12T03:09:59.479Z,0.00
2018-09-12T03:10:59.403Z,0.00
2018-09-12T03:11:59.329Z,0.00
2018-09-12T03:12:59.249Z,0.00
2018-09-12T03:13:59.173Z,0.00
2018-09-12T03:14:59.095Z,0.00
2018-09-12T03:15:59.019Z,0.00
2018-09-12T03:16:58.943Z,0.00
2018-09-12T03:17:58.865Z,0.00
2018-09-12T03:18:58.807Z,0.00
2018-09-12T03:19:58.710Z,0.00
2018-09-12T03:20:58.781Z,0.00
2018-09-12T03:21:58.560Z,0.00
2018-09-12T03:22:58.481Z,0.00
2018-09-12T03:23:58.407Z,0.00
2018-09-12T03:24:58.326Z,0.00
2018-09-12T03:25:58.249Z,0.00
2018-09-12T03:26:58.174Z,0.00
2018-09-12T03:27:58.095Z,0.00
2018-09-12T03:28:58.017Z,0.00
2018-09-12T03:29:57.941Z,0.00
2018-09-12T03:30:57.865Z,0.00
2018-09-12T03:31:57.791Z,0.00
2018-09-12T03:32:57.713Z,0.00
2018-09-12T03:33:57.635Z,0.00
2018-09-12T03:34:57.558Z,0.00
2018-09-12T03:35:57.482Z,0.00
2018-09-12T03:36:57.404Z,0.00
2018-09-12T03:37:57.325Z,0.00
2018-09-12T03:38:57.250Z,0.00
2018-09-12T03:39:57.172Z,0.00
2018-09-12T03:40:57.108Z,0.00
2018-09-12T03:41:57.020Z,0.00
2018-09-12T03:42:56.944Z,0.00
2018-09-12T03:43:56.867Z,0.00
2018-09-12T03:44:56.786Z,0.00
2018-09-12T03:45:56.711Z,0.00
2018-09-12T03:46:56.633Z,0.00
2018-09-12T03:47:56.573Z,0.00
2018-09-12T03:48:56.478Z,0.00
2018-09-12T03:49:56.402Z,0.00
2018-09-12T03:50:56.328Z,0.00
2018-09-12T03:51:56.250Z,0.00
2018-09-12T03:52:56.170Z,0.00
2018-09-12T03:53:56.095Z,0.00
2018-09-12T03:54:56.020Z,0.00
2018-09-12T03:55:55.940Z,0.00
2018-09-12T03:56:55.862Z,0.00
2018-09-12T03:57:55.785Z,0.00
2018-09-12T03:58:55.709Z,0.00
2018-09-12T03:59:55.632Z,0.00
2018-09-12T04:00:55.559Z,0.00
2018-09-12T04:01:55.481Z,0.00
2018-09-12T04:02:55.450Z,0.00
2018-09-12T04:03:55.322Z,0.00
2018-09-12T04:04:55.249Z,0.00
2018-09-12T04:05:55.169Z,0.00
2018-09-12T04:06:55.093Z,0.00
2018-09-12T04:07:55.016Z,0.00
2018-09-12T04:08:54.938Z,0.00
2018-09-12T04:09:54.863Z,0.00
2018-09-12T04:10:54.783Z,0.00
2018-09-12T04:11:54.707Z,0.00
2018-09-12T04:12:54.630Z,0.00
2018-09-12T04:13:54.553Z,0.00
2018-09-12T04:14:54.478Z,0.00
2018-09-12T04:15:54.398Z,0.00
2018-09-12T04:16:54.369Z,0.00
2018-09-12T04:17:54.243Z,4.00
2018-09-12T04:18:54.176Z,4.00
2018-09-12T04:19:54.089Z,0.00
2018-09-12T04:20:54.014Z,4.00
2018-09-12T04:21:53.940Z,0.00
2018-09-12T04:22:53.860Z,4.00
2018-09-12T04:23:53.781Z,4.00
2018-09-12T04:24:53.705Z,4.00
2018-09-12T04:25:53.630Z,8.00
2018-09-12T04:26:53.551Z,8.00
2018-09-12T04:27:53.473Z,12.00
2018-09-12T04:28:53.394Z,12.00
2018-09-12T04:29:53.323Z,16.00
2018-09-12T04:30:53.241Z,20.00
2018-09-12T04:31:53.163Z,20.00
2018-09-12T04:32:53.086Z,24.00
2018-09-12T04:33:53.011Z,28.00
2018-09-12T04:34:52.932Z,32.00
2018-09-12T04:35:52.857Z,40.00
2018-09-12T04:36:52.776Z,40.00
2018-09-12T04:37:52.700Z,52.00
2018-09-12T04:38:52.624Z,60.00
2018-09-12T04:39:52.548Z,68.00
2018-09-12T04:40:52.478Z,76.00
2018-09-12T04:41:52.393Z,92.00
2018-09-12T04:42:52.358Z,100.00
2018-09-12T04:43:52.238Z,116.00
2018-09-12T04:44:52.164Z,132.00
2018-09-12T04:45:52.096Z,148.00
2018-09-12T04:46:52.008Z,164.00
2018-09-12T04:47:51.927Z,180.00
2018-09-12T04:48:51.851Z,200.00
2018-09-12T04:49:51.775Z,220.00
2018-09-12T04:50:51.698Z,240.00
2018-09-12T04:51:51.620Z,260.00
2018-09-12T04:52:51.542Z,280.00
2018-09-12T04:53:51.465Z,300.00
2018-09-12T04:54:51.392Z,320.00
2018-09-12T04:55:51.317Z,340.00
2018-09-12T04:56:51.235Z,360.00
2018-09-12T04:57:51.161Z,380.00
2018-09-12T04:58:51.079Z,400.00
2018-09-12T04:59:51.037Z,420.00
2018-09-12T05:00:50.924Z,440.00
2018-09-12T05:01:50.847Z,464.00
2018-09-12T05:02:50.772Z,480.00
2018-09-12T05:03:50.693Z,500.00
2018-09-12T05:04:50.616Z,520.00
2018-09-12T05:05:50.540Z,540.00
2018-09-12T05:06:50.460Z,560.00
2018-09-12T05:07:50.381Z,580.00
2018-09-12T05:08:50.307Z,600.00
2018-09-12T05:09:50.229Z,620.00
2018-09-12T05:10:50.152Z,636.00
2018-09-12T05:11:50.077Z,660.00
2018-09-12T05:12:49.998Z,672.00
2018-09-12T05:13:49.925Z,696.00
2018-09-12T05:14:49.843Z,712.00
2018-09-12T05:15:49.787Z,732.00
2018-09-12T05:16:49.687Z,748.00
2018-09-12T05:17:49.610Z,760.00
2018-09-12T05:18:49.535Z,780.00
2018-09-12T05:19:49.458Z,800.00
2018-09-12T05:20:49.378Z,816.00
2018-09-12T05:21:49.304Z,836.00
2018-09-12T05:22:49.226Z,852.00
2018-09-12T05:23:49.147Z,864.00
2018-09-12T05:24:49.073Z,880.00
2018-09-12T05:25:48.994Z,900.00
2018-09-12T05:26:48.916Z,916.00
2018-09-12T05:27:48.843Z,936.00
2018-09-12T05:28:48.761Z,948.00
2018-09-12T05:29:48.684Z,964.00
2018-09-12T05:30:48.613Z,964.00
2018-09-12T05:31:48.534Z,984.00
2018-09-12T05:32:48.455Z,1008.00
2018-09-12T05:33:48.379Z,1024.00
2018-09-12T05:34:48.301Z,1040.00
2018-09-12T05:35:48.223Z,1052.00
2018-09-12T05:36:48.146Z,1072.00
2018-09-12T05:37:48.071Z,1084.00
2018-09-12T05:38:47.997Z,1104.00
2018-09-12T05:39:47.923Z,1116.00
2018-09-12T05:40:47.840Z,1124.00
2018-09-12T05:41:47.766Z,1148.00
2018-09-12T05:42:47.694Z,1164.00
2018-09-12T05:43:47.615Z,1184.00
2018-09-12T05:44:47.539Z,1200.00
2018-09-12T05:45:47.460Z,1212.00
2018-09-12T05:46:47.378Z,1232.00
2018-09-12T05:47:47.302Z,1244.00
2018-09-12T05:48:47.231Z,1260.00
2018-09-12T05:49:47.150Z,1276.00
2018-09-12T05:50:47.073Z,1288.00
2018-09-12T05:51:46.997Z,1300.00
2018-09-12T05:52:46.917Z,1316.00
2018-09-12T05:53:46.841Z,1332.00
2018-09-12T05:54:46.768Z,1352.00
2018-09-12T05:55:46.689Z,1364.00
2018-09-12T05:56:46.611Z,1372.00
2018-09-12T05:57:46.534Z,1392.00
2018-09-12T05:58:46.585Z,1408.00
2018-09-12T05:59:46.381Z,1420.00
2018-09-12T06:00:46.304Z,1432.00
2018-09-12T06:01:46.225Z,1448.00
2018-09-12T06:02:46.151Z,1464.00
2018-09-12T06:03:46.108Z,1480.00
2018-09-12T06:04:45.998Z,1492.00
2018-09-12T06:05:45.923Z,1504.00
2018-09-12T06:06:45.907Z,1516.00
2018-09-12T06:07:45.769Z,1528.00
2018-09-12T06:08:45.693Z,1540.00
2018-09-12T06:09:45.614Z,1552.00
2018-09-12T06:10:45.538Z,1568.00
2018-09-12T06:11:45.501Z,1584.00
2018-09-12T06:12:45.384Z,1588.00
2018-09-12T06:13:45.343Z,1592.00
2018-09-12T06:14:45.239Z,1604.00
2018-09-12T06:15:45.152Z,1620.00
2018-09-12T06:16:45.081Z,1632.00
2018-09-12T06:17:45.001Z,1644.00
2018-09-12T06:18:44.924Z,1648.00
2018-09-12T06:19:44.854Z,1656.00
2018-09-12T06:20:44.773Z,1672.00
2018-09-12T06:21:44.696Z,1584.00
2018-09-12T06:22:44.620Z,1688.00
2018-09-12T06:23:44.546Z,1672.00
2018-09-12T06:24:44.465Z,1716.00
2018-09-12T06:25:44.392Z,1724.00
2018-09-12T06:26:44.314Z,1736.00
2018-09-12T06:27:44.239Z,1744.00
2018-09-12T06:28:44.161Z,1756.00
2018-09-12T06:29:44.084Z,1764.00
2018-09-12T06:30:44.042Z,1776.00
2018-09-12T06:31:43.935Z,1784.00
2018-09-12T06:32:43.858Z,1792.00
2018-09-12T06:33:43.785Z,1796.00
2018-09-12T06:34:43.705Z,1804.00
2018-09-12T06:35:43.626Z,1808.00
2018-09-12T06:36:43.554Z,1816.00
2018-09-12T06:37:43.516Z,1820.00
2018-09-12T06:38:43.454Z,1820.00
2018-09-12T06:39:43.328Z,1876.00
2018-09-12T06:40:43.248Z,1840.00
2018-09-12T06:41:43.175Z,1840.00
2018-09-12T06:42:43.097Z,1848.00
2018-09-12T06:43:43.019Z,1852.00
2018-09-12T06:44:42.974Z,1860.00
2018-09-12T06:45:42.871Z,1864.00
2018-09-12T06:46:42.793Z,1876.00
2018-09-12T06:47:42.716Z,1876.00
2018-09-12T06:48:42.644Z,1884.00
2018-09-12T06:49:42.563Z,1888.00
2018-09-12T06:50:42.491Z,1888.00
2018-09-12T06:51:42.418Z,1892.00
2018-09-12T06:52:42.340Z,1896.00
2018-09-12T06:53:42.262Z,1904.00
2018-09-12T06:54:42.196Z,1904.00
2018-09-12T06:55:42.110Z,1912.00
2018-09-12T06:56:42.038Z,1920.00
2018-09-12T06:57:41.963Z,1924.00
2018-09-12T06:58:41.884Z,1924.00
2018-09-12T06:59:41.809Z,1936.00
2018-09-12T07:00:41.797Z,1948.00
2018-09-12T07:01:41.662Z,1956.00
2018-09-12T07:02:41.585Z,1964.00
2018-09-12T07:03:41.508Z,1968.00
2018-09-12T07:04:41.433Z,1980.00
2018-09-12T07:05:41.360Z,1988.00
2018-09-12T07:06:41.326Z,1996.00
2018-09-12T07:07:41.272Z,2000.00
2018-09-12T07:08:41.129Z,2008.00
2018-09-12T07:09:41.058Z,2012.00
2018-09-12T07:10:40.989Z,2020.00
2018-09-12T07:11:40.905Z,2028.00
2018-09-12T07:12:40.830Z,2032.00
2018-09-12T07:13:40.755Z,2036.00
2018-09-12T07:14:40.679Z,2040.00
2018-09-12T07:15:40.605Z,2048.00
2018-09-12T07:16:40.531Z,2052.00
2018-09-12T07:17:40.455Z,2052.00
2018-09-12T07:18:40.381Z,2064.00
2018-09-12T07:19:40.306Z,2064.00
2018-09-12T07:20:40.230Z,2068.00
2018-09-12T07:21:40.154Z,2076.00
2018-09-12T07:22:40.077Z,2080.00
2018-09-12T07:23:40.004Z,2080.00
2018-09-12T07:24:39.936Z,2092.00
2018-09-12T07:25:39.856Z,2096.00
2018-09-12T07:26:39.781Z,2104.00
2018-09-12T07:27:39.735Z,2112.00
2018-09-12T07:28:39.630Z,2108.00
2018-09-12T07:29:39.566Z,2120.00
2018-09-12T07:30:39.557Z,2124.00
2018-09-12T07:31:39.407Z,2128.00
2018-09-12T07:32:39.332Z,2128.00
2018-09-12T07:33:39.259Z,2132.00
2018-09-12T07:34:39.182Z,2136.00
2018-09-12T07:35:39.111Z,2140.00
2018-09-12T07:36:39.038Z,2144.00
2018-09-12T07:37:38.958Z,2160.00
2018-09-12T07:38:38.883Z,2164.00
2018-09-12T07:39:38.807Z,2160.00
2018-09-12T07:40:38.736Z,2168.00
2018-09-12T07:41:38.722Z,2176.00
2018-09-12T07:42:38.591Z,2176.00
2018-09-12T07:43:38.512Z,2184.00
2018-09-12T07:44:38.438Z,2180.00
2018-09-12T07:45:38.364Z,2184.00
2018-09-12T07:46:38.287Z,2184.00
2018-09-12T07:47:38.214Z,2192.00
2018-09-12T07:48:38.136Z,2200.00
2018-09-12T07:49:38.065Z,2204.00
2018-09-12T07:50:37.992Z,2212.00
2018-09-12T07:51:37.915Z,2216.00
2018-09-12T07:52:37.843Z,2224.00
2018-09-12T07:53:37.769Z,2232.00
2018-09-12T07:54:37.698Z,2236.00
2018-09-12T07:55:44.827Z,2240.00
2018-09-12T07:57:41.506Z,2248.00
2018-09-12T07:58:41.384Z,2252.00
2018-09-12T07:59:41.308Z,2260.00
2018-09-12T08:00:41.258Z,2264.00
2018-09-12T08:01:41.166Z,2264.00
2018-09-12T08:02:41.094Z,2276.00
2018-09-12T08:03:41.012Z,2276.00
2018-09-12T08:04:40.945Z,2288.00
2018-09-12T08:05:40.864Z,2292.00
2018-09-12T08:06:40.798Z,2296.00
2018-09-12T08:07:40.725Z,2296.00
2018-09-12T08:08:40.700Z,2304.00
2018-09-12T08:09:40.574Z,2308.00
2018-09-12T08:10:40.500Z,2312.00
2018-09-12T08:11:40.419Z,2324.00
2018-09-12T08:12:40.343Z,2320.00
2018-09-12T08:13:40.270Z,2320.00
2018-09-12T08:14:40.195Z,2328.00
2018-09-12T08:15:40.123Z,2332.00
2018-09-12T08:16:40.047Z,2340.00
2018-09-12T08:17:39.981Z,2344.00
2018-09-12T08:18:39.900Z,2352.00
2018-09-12T08:19:39.828Z,2352.00
2018-09-12T08:20:39.751Z,2368.00
2018-09-12T08:21:39.683Z,2372.00
2018-09-12T08:22:39.604Z,2372.00
2018-09-12T08:23:39.528Z,2376.00
2018-09-12T08:24:39.455Z,2376.00
2018-09-12T08:25:39.381Z,2376.00
2018-09-12T08:26:39.349Z,2384.00
2018-09-12T08:27:39.232Z,2388.00
2018-09-12T08:28:39.159Z,2396.00
2018-09-12T08:29:39.111Z,2404.00
2018-09-12T08:30:39.017Z,2412.00
2018-09-12T08:31:38.953Z,2416.00
2018-09-12T08:32:38.866Z,2420.00
2018-09-12T08:33:38.792Z,2424.00
2018-09-12T08:34:38.718Z,2432.00
2018-09-12T08:35:38.649Z,2436.00
2018-09-12T08:36:38.574Z,2440.00
2018-09-12T08:37:38.498Z,2448.00
2018-09-12T08:38:38.424Z,2452.00
2018-09-12T08:39:38.351Z,2460.00
2018-09-12T08:40:38.275Z,2472.00
2018-09-12T08:41:38.201Z,2476.00
2018-09-12T08:42:38.231Z,2484.00
2018-09-12T08:43:38.059Z,2488.00
2018-09-12T08:44:37.981Z,2492.00
2018-09-12T08:45:37.912Z,2496.00
2018-09-12T08:46:37.835Z,2500.00
2018-09-12T08:47:37.764Z,2500.00
2018-09-12T08:48:37.686Z,2504.00
2018-09-12T08:49:37.616Z,2508.00
2018-09-12T08:50:37.539Z,2516.00
2018-09-12T08:51:37.467Z,2516.00
2018-09-12T08:52:37.392Z,2524.00
2018-09-12T08:53:37.324Z,2520.00
2018-09-12T08:54:37.246Z,2508.00
2018-09-12T08:55:37.171Z,2528.00
2018-09-12T08:56:37.125Z,2536.00
2018-09-12T08:57:37.027Z,2540.00
2018-09-12T08:58:36.952Z,2544.00
2018-09-12T08:59:36.879Z,2552.00
2018-09-12T09:00:36.805Z,2556.00
2018-09-12T09:01:36.768Z,2568.00
2018-09-12T09:02:36.665Z,2580.00
2018-09-12T09:03:36.643Z,2584.00
2018-09-12T09:04:36.518Z,2588.00
2018-09-12T09:05:36.442Z,2592.00
2018-09-12T09:06:36.366Z,2608.00
2018-09-12T09:07:36.293Z,2620.00
2018-09-12T09:08:36.221Z,2632.00
2018-09-12T09:09:36.146Z,2652.00
2018-09-12T09:10:36.165Z,2660.00
2018-09-12T09:11:36.004Z,2664.00
2018-09-12T09:12:35.928Z,2668.00
2018-09-12T09:13:35.859Z,2672.00
2018-09-12T09:14:35.785Z,2684.00
2018-09-12T09:15:35.733Z,2688.00
2018-09-12T09:16:35.633Z,2688.00
2018-09-12T09:17:35.566Z,2692.00
2018-09-12T09:18:35.490Z,2696.00
2018-09-12T09:19:35.418Z,2708.00
2018-09-12T09:20:35.342Z,2708.00
2018-09-12T09:21:35.271Z,2720.00
2018-09-12T09:22:35.203Z,2740.00
2018-09-12T09:23:35.184Z,2756.00
2018-09-12T09:24:35.052Z,2776.00
2018-09-12T09:25:34.984Z,2792.00
2018-09-12T09:26:34.909Z,2796.00
2018-09-12T09:27:34.838Z,2792.00
2018-09-12T09:28:34.765Z,2804.00
2018-09-12T09:29:34.692Z,2828.00
2018-09-12T09:30:34.620Z,2836.00
2018-09-12T09:31:34.546Z,2844.00
2018-09-12T09:32:34.478Z,2860.00
2018-09-12T09:33:34.402Z,2864.00
2018-09-12T09:34:34.344Z,2872.00
2018-09-12T09:35:34.416Z,2872.00
2018-09-12T09:36:34.185Z,2888.00
2018-09-12T09:37:34.116Z,2908.00
2018-09-12T09:38:34.042Z,2920.00
2018-09-12T09:39:33.963Z,2924.00
2018-09-12T09:40:33.893Z,2940.00
2018-09-12T09:41:33.828Z,2964.00
2018-09-12T09:42:33.754Z,3004.00
2018-09-12T09:43:33.677Z,3056.00
2018-09-12T09:44:33.608Z,3084.00
2018-09-12T09:45:33.529Z,3084.00
2018-09-12T09:46:33.456Z,3092.00
2018-09-12T09:47:33.385Z,3108.00
2018-09-12T09:48:33.313Z,3136.00
2018-09-12T09:49:33.242Z,3172.00
2018-09-12T09:50:33.173Z,3196.00
2018-09-12T09:51:33.096Z,3224.00
2018-09-12T09:52:33.030Z,3244.00
2018-09-12T09:53:32.956Z,3268.00
2018-09-12T09:54:32.937Z,3292.00
2018-09-12T09:55:32.814Z,3304.00
2018-09-12T09:56:32.738Z,3316.00
2018-09-12T09:57:32.665Z,3340.00
2018-09-12T09:58:32.594Z,3372.00
2018-09-12T09:59:32.522Z,3404.00
2018-09-12T10:00:32.458Z,3440.00
2018-09-12T10:01:32.378Z,3472.00
2018-09-12T10:02:32.313Z,3504.00
2018-09-12T10:03:32.234Z,3528.00
2018-09-12T10:04:32.171Z,3536.00
2018-09-12T10:05:32.091Z,3556.00
2018-09-12T10:06:32.021Z,3572.00
2018-09-12T10:07:31.950Z,3592.00
2018-09-12T10:08:31.879Z,3612.00
2018-09-12T10:09:31.805Z,3636.00
2018-09-12T10:10:31.770Z,3668.00
2018-09-12T10:11:31.662Z,3704.00
2018-09-12T10:12:31.624Z,3744.00
2018-09-12T10:13:31.519Z,3788.00
2018-09-12T10:14:31.461Z,3824.00
2018-09-12T10:15:31.383Z,3840.00
2018-09-12T10:16:31.305Z,3860.00
2018-09-12T10:17:31.236Z,3888.00
2018-09-12T10:18:31.161Z,3916.00
2018-09-12T10:19:31.096Z,3948.00
2018-09-12T10:20:31.018Z,3980.00
2018-09-12T10:21:30.950Z,4016.00
2018-09-12T10:22:30.889Z,4044.00
2018-09-12T10:23:30.812Z,4068.00
2018-09-12T10:24:30.749Z,4084.00
2018-09-12T10:25:30.667Z,4092.00
2018-09-12T10:26:30.602Z,4104.00
2018-09-12T10:27:30.523Z,4132.00
2018-09-12T10:28:30.454Z,4164.00
2018-09-12T10:29:30.381Z,4192.00
2018-09-12T10:30:30.314Z,4224.00
2018-09-12T10:31:30.239Z,4240.00
2018-09-12T10:32:30.170Z,4276.00
2018-09-12T10:33:30.100Z,4296.00
2018-09-12T10:34:30.031Z,4336.00
2018-09-12T10:35:29.958Z,4356.00
2018-09-12T10:36:29.892Z,4364.00
2018-09-12T10:37:29.823Z,4384.00
2018-09-12T10:38:29.744Z,4408.00
2018-09-12T10:39:29.674Z,4428.00
2018-09-12T10:40:29.603Z,4448.00
2018-09-12T10:41:29.537Z,4468.00
2018-09-12T10:42:29.461Z,4500.00
2018-09-12T10:43:29.393Z,4512.00
2018-09-12T10:44:29.330Z,4528.00
2018-09-12T10:45:29.253Z,4564.00
2018-09-12T10:46:29.182Z,4592.00
2018-09-12T10:47:29.117Z,4632.00
2018-09-12T10:48:29.045Z,4660.00
2018-09-12T10:49:28.973Z,4692.00
2018-09-12T10:50:28.923Z,4704.00
2018-09-12T10:51:28.887Z,4736.00
2018-09-12T10:52:28.761Z,4776.00
2018-09-12T10:53:28.696Z,4812.00
2018-09-12T10:54:28.623Z,4824.00
2018-09-12T10:55:28.555Z,4824.00
2018-09-12T10:56:28.482Z,4848.00
2018-09-12T10:57:28.415Z,4868.00
2018-09-12T10:58:28.347Z,4896.00
2018-09-12T10:59:28.278Z,4912.00
2018-09-12T11:00:28.222Z,4956.00
2018-09-12T11:01:28.155Z,5000.00
2018-09-12T11:02:28.064Z,5008.00
2018-09-12T11:03:27.995Z,5024.00
2018-09-12T11:04:28.117Z,5060.00
2018-09-12T11:05:27.860Z,5056.00
2018-09-12T11:06:27.785Z,5080.00
2018-09-12T11:07:27.716Z,5100.00
2018-09-12T11:08:27.647Z,5144.00
2018-09-12T11:09:27.581Z,5200.00
2018-09-12T11:10:27.511Z,5240.00
2018-09-12T11:11:27.440Z,5300.00
2018-09-12T11:12:27.370Z,5344.00
2018-09-12T11:13:27.302Z,5384.00
2018-09-12T11:14:27.233Z,5432.00
2018-09-12T11:15:27.164Z,5472.00
2018-09-12T11:16:27.098Z,5512.00
2018-09-12T11:17:27.029Z,5560.00
2018-09-12T11:18:26.959Z,5588.00
2018-09-12T11:19:26.894Z,5608.00
2018-09-12T11:20:26.820Z,5636.00
2018-09-12T11:21:26.752Z,5668.00
2018-09-12T11:22:26.684Z,5708.00
2018-09-12T11:23:26.613Z,5740.00
2018-09-12T11:24:26.548Z,5780.00
2018-09-12T11:25:26.477Z,5808.00
2018-09-12T11:26:26.414Z,5860.00
2018-09-12T11:27:26.340Z,5896.00
2018-09-12T11:28:26.273Z,5932.00
2018-09-12T11:29:26.207Z,6100.00
2018-09-12T11:30:26.138Z,6588.00
2018-09-12T11:31:26.128Z,7892.00
2018-09-12T11:32:26.009Z,32064.00
2018-09-12T11:33:25.935Z,71360.00
2018-09-12T11:34:25.865Z,95232.00
2018-09-12T11:35:25.798Z,93056.00
2018-09-12T11:36:25.733Z,90944.00
2018-09-12T11:37:25.689Z,92544.00
2018-09-12T11:38:25.682Z,93312.00
2018-09-12T11:39:25.538Z,93440.00
2018-09-12T11:40:25.485Z,93344.00
2018-09-12T11:41:25.408Z,96704.00
2018-09-12T11:42:25.344Z,99200.00
2018-09-12T11:43:25.284Z,96480.00
2018-09-12T11:44:25.259Z,94656.00
2018-09-12T11:45:25.157Z,94464.00
2018-09-12T11:46:25.094Z,97760.00
2018-09-12T11:47:25.037Z,98496.00
2018-09-12T11:48:24.980Z,97760.00
2018-09-12T11:49:24.915Z,95584.00
2018-09-12T11:50:24.853Z,94528.00
2018-09-12T11:51:24.797Z,98240.00
2018-09-12T11:52:24.736Z,100000.00
2018-09-12T11:53:24.676Z,102944.00
2018-09-12T11:54:24.627Z,104832.00
2018-09-12T11:55:24.565Z,103872.00
2018-09-12T11:56:24.526Z,101568.00
2018-09-12T11:57:24.447Z,101248.00
2018-09-12T11:58:24.399Z,100576.00
2018-09-12T11:59:24.331Z,97696.00
2018-09-12T12:00:24.277Z,98240.00
2018-09-12T12:01:24.234Z,94048.00
2018-09-12T12:02:24.164Z,97920.00
2018-09-12T12:03:24.108Z,95616.00
2018-09-12T12:04:24.067Z,100576.00
2018-09-12T12:05:23.999Z,97504.00
2018-09-12T12:06:23.957Z,95744.00
2018-09-12T12:07:23.889Z,94560.00
2018-09-12T12:08:23.831Z,94976.00
2018-09-12T12:09:23.835Z,89536.00
2018-09-12T12:10:23.722Z,92832.00
2018-09-12T12:11:23.668Z,92576.00
2018-09-12T12:12:23.625Z,90368.00
2018-09-12T12:13:23.559Z,86432.00
2018-09-12T12:14:23.503Z,86784.00
2018-09-12T12:15:23.515Z,87616.00
2018-09-12T12:16:23.397Z,86848.00
2018-09-12T12:17:23.350Z,85824.00
2018-09-12T12:18:23.294Z,87296.00
2018-09-12T12:19:23.241Z,88256.00
2018-09-12T12:20:23.184Z,91904.00
2018-09-12T12:21:23.152Z,92320.00
2018-09-12T12:22:23.077Z,92960.00
2018-09-12T12:23:23.024Z,94432.00
2018-09-12T12:24:22.970Z,87552.00
2018-09-12T12:25:22.923Z,86464.00
2018-09-12T12:26:22.865Z,85376.00
2018-09-12T12:27:22.815Z,84032.00
2018-09-12T12:28:22.762Z,83616.00
2018-09-12T12:29:22.710Z,84896.00
2018-09-12T12:30:22.668Z,85312.00
2018-09-12T12:31:22.608Z,83744.00